createdAt,value
2022-10-29T11:55:43.183Z,1013.76
2022-10-29T11:56:43.397Z,1013.73
2022-10-29T11:57:43.744Z,1013.74
2022-10-29T11:58:43.972Z,1013.72
2022-10-29T11:59:44.203Z,1013.72
2022-10-29T12:00:44.453Z,1013.70
2022-10-29T12:01:44.829Z,1013.67
2022-10-29T12:02:45.034Z,1013.69
2022-10-29T12:03:45.315Z,1013.67
2022-10-29T12:04:45.514Z,1013.66
2022-10-29T12:05:45.740Z,1013.67
2022-10-29T12:06:45.968Z,1013.71
2022-10-29T12:07:46.202Z,1013.71
2022-10-29T12:08:53.457Z,1013.74
2022-10-29T12:09:46.720Z,1013.71
2022-10-29T12:10:46.965Z,1013.75
2022-10-29T12:11:47.187Z,1013.72
2022-10-29T12:12:47.404Z,1013.71
2022-10-29T12:13:47.634Z,1013.73
2022-10-29T12:14:47.867Z,1013.66
2022-10-29T12:15:48.127Z,1013.72
2022-10-29T12:16:48.449Z,1013.65
2022-10-29T12:17:48.725Z,1013.62
2022-10-29T12:18:48.949Z,1013.58
2022-10-29T12:19:49.165Z,1013.62
2022-10-29T12:20:49.438Z,1013.60
2022-10-29T12:21:49.625Z,1013.64
2022-10-29T12:22:49.997Z,1013.61
2022-10-29T12:23:50.227Z,1013.57
2022-10-29T12:24:50.457Z,1013.57
2022-10-29T12:25:50.685Z,1013.60
2022-10-29T12:26:50.919Z,1013.60
2022-10-29T12:27:51.144Z,1013.61
2022-10-29T12:28:51.390Z,1013.57
2022-10-29T12:29:51.606Z,1013.58
2022-10-29T12:30:51.863Z,1013.58
2022-10-29T12:31:52.179Z,1013.54
2022-10-29T12:32:52.401Z,1013.52
2022-10-29T12:33:52.626Z,1013.54
2022-10-29T12:34:52.971Z,1013.50
2022-10-29T12:35:53.293Z,1013.52
2022-10-29T12:36:56.647Z,1013.55
2022-10-29T12:37:53.895Z,1013.52
2022-10-29T12:38:53.988Z,1013.53
2022-10-29T12:39:54.351Z,1013.57
2022-10-29T12:40:54.592Z,1013.52
2022-10-29T12:41:54.819Z,1013.51
2022-10-29T12:42:55.038Z,1013.52
2022-10-29T12:43:55.270Z,1013.52
2022-10-29T12:44:55.513Z,1013.51
2022-10-29T12:46:57.048Z,1013.49
2022-10-29T12:47:56.608Z,1013.46
2022-10-29T12:48:56.542Z,1013.48
2022-10-29T12:49:56.759Z,1013.47
2022-10-29T12:50:56.999Z,1013.44
2022-10-29T12:52:57.726Z,1013.43
2022-10-29T12:53:57.778Z,1013.46
2022-10-29T12:54:58.007Z,1013.41
2022-10-29T12:55:58.253Z,1013.43
2022-10-29T12:56:58.580Z,1013.42
2022-10-29T12:57:58.808Z,1013.47
2022-10-29T12:58:59.043Z,1013.46
2022-10-29T12:59:59.271Z,1013.42
2022-10-29T13:00:59.621Z,1013.44
2022-10-29T13:02:11.724Z,1013.44
2022-10-29T13:03:01.394Z,1013.37
2022-10-29T13:04:00.325Z,1013.41
2022-10-29T13:05:00.553Z,1013.42
2022-10-29T13:06:00.804Z,1013.40
2022-10-29T13:07:01.023Z,1013.36
2022-10-29T13:08:01.299Z,1013.37
2022-10-29T13:09:01.517Z,1013.32
2022-10-29T13:10:01.806Z,1013.33
2022-10-29T13:11:02.014Z,1013.33
2022-10-29T13:12:02.249Z,1013.29
2022-10-29T13:13:02.500Z,1013.33
2022-10-29T13:14:02.726Z,1013.28
2022-10-29T13:15:02.936Z,1013.22
2022-10-29T13:16:03.200Z,1013.25
2022-10-29T13:17:03.494Z,1013.22
2022-10-29T13:18:03.858Z,1013.23
2022-10-29T13:19:04.088Z,1013.21
2022-10-29T13:20:04.392Z,1013.21
2022-10-29T13:21:04.559Z,1013.19
2022-10-29T13:22:04.789Z,1013.17
2022-10-29T13:23:08.132Z,1013.13
2022-10-29T13:24:06.305Z,1013.15
2022-10-29T13:25:05.536Z,1013.13
2022-10-29T13:26:05.919Z,1013.08
2022-10-29T13:27:06.216Z,1013.07
2022-10-29T13:28:06.454Z,1013.04
2022-10-29T13:29:06.691Z,1013.08
2022-10-29T13:30:06.959Z,1013.06
2022-10-29T13:31:07.169Z,1013.05
2022-10-29T13:32:07.466Z,1013.06
2022-10-29T13:33:07.706Z,1013.06
2022-10-29T13:34:07.935Z,1013.03
2022-10-29T13:35:08.167Z,1013.04
2022-10-29T13:36:08.424Z,1013.04
2022-10-29T13:37:08.727Z,1012.98
2022-10-29T13:38:08.956Z,1012.96
2022-10-29T13:39:09.209Z,1012.95
2022-10-29T13:40:09.442Z,1012.91
2022-10-29T13:41:09.722Z,1012.88
2022-10-29T13:42:09.898Z,1012.89
2022-10-29T13:43:10.171Z,1012.92
2022-10-29T13:44:10.471Z,1012.87
2022-10-29T13:45:10.731Z,1012.90
2022-10-29T13:46:11.082Z,1012.88
2022-10-29T13:47:11.379Z,1012.91
2022-10-29T13:48:11.609Z,1012.85
2022-10-29T13:49:11.841Z,1012.83
2022-10-29T13:50:12.083Z,1012.85
2022-10-29T13:51:12.381Z,1012.81
2022-10-29T13:52:12.578Z,1012.80
2022-10-29T13:53:13.652Z,1012.75
2022-10-29T13:54:13.138Z,1012.77
2022-10-29T13:55:13.321Z,1012.78
2022-10-29T13:56:13.550Z,1012.76
2022-10-29T13:57:13.774Z,1012.74
2022-10-29T13:58:14.001Z,1012.78
2022-10-29T13:59:14.248Z,1012.72
2022-10-29T14:00:14.490Z,1012.67
2022-10-29T14:01:14.823Z,1012.66
2022-10-29T14:02:15.035Z,1012.64
2022-10-29T14:03:15.467Z,1012.63
2022-10-29T14:04:15.477Z,1012.66
2022-10-29T14:05:15.722Z,1012.63
2022-10-29T14:06:15.950Z,1012.66
2022-10-29T14:07:16.173Z,1012.61
2022-10-29T14:08:16.402Z,1012.59
2022-10-29T14:09:16.646Z,1012.62
2022-10-29T14:10:16.953Z,1012.57
2022-10-29T14:11:17.137Z,1012.63
2022-10-29T14:12:17.356Z,1012.60
2022-10-29T14:13:21.987Z,1012.64
2022-10-29T14:14:18.862Z,1012.67
2022-10-29T14:15:18.156Z,1012.65
2022-10-29T14:16:18.347Z,1012.66
2022-10-29T14:17:18.587Z,1012.72
2022-10-29T14:18:18.817Z,1012.76
2022-10-29T14:19:19.068Z,1012.78
2022-10-29T14:20:19.294Z,1012.75
2022-10-29T14:21:19.523Z,1012.77
2022-10-29T14:22:19.764Z,1012.76
2022-10-29T14:23:19.997Z,1012.75
2022-10-29T14:24:20.222Z,1012.79
2022-10-29T14:25:20.555Z,1012.81
2022-10-29T14:26:20.733Z,1012.78
2022-10-29T14:27:20.978Z,1012.77
2022-10-29T14:28:21.221Z,1012.79
2022-10-29T14:29:21.538Z,1012.82
2022-10-29T14:30:21.778Z,1012.82
2022-10-29T14:31:21.996Z,1012.82
2022-10-29T14:32:22.241Z,1012.78
2022-10-29T14:33:22.476Z,1012.77
2022-10-29T14:34:22.700Z,1012.77
2022-10-29T14:35:23.175Z,1012.76
2022-10-29T14:36:23.230Z,1012.75
2022-10-29T14:37:23.541Z,1012.79
2022-10-29T14:38:23.781Z,1012.78
2022-10-29T14:39:28.825Z,1012.76
2022-10-29T14:40:25.322Z,1012.76
2022-10-29T14:41:24.547Z,1012.74
2022-10-29T14:42:24.800Z,1012.72
2022-10-29T14:43:25.027Z,1012.74
2022-10-29T14:44:25.276Z,1012.74
2022-10-29T14:45:25.605Z,1012.76
2022-10-29T14:46:25.921Z,1012.82
2022-10-29T14:47:30.404Z,1012.80
2022-10-29T14:48:27.408Z,1012.74
2022-10-29T14:49:26.669Z,1012.71
2022-10-29T14:50:26.920Z,1012.77
2022-10-29T14:51:27.236Z,1012.75
2022-10-29T14:52:27.465Z,1012.69
2022-10-29T14:53:27.704Z,1012.73
2022-10-29T14:54:27.936Z,1012.74
2022-10-29T14:55:28.197Z,1012.69
2022-10-29T14:56:28.548Z,1012.71
2022-10-29T14:57:28.760Z,1012.69
2022-10-29T14:58:28.983Z,1012.65
2022-10-29T14:59:29.534Z,1012.64
2022-10-29T15:00:29.477Z,1012.64
2022-10-29T15:01:29.911Z,1012.65
2022-10-29T15:02:38.000Z,1012.62
2022-10-29T15:03:31.395Z,1012.60
2022-10-29T15:04:30.543Z,1012.62
2022-10-29T15:05:30.864Z,1012.62
2022-10-29T15:06:31.175Z,1012.61
2022-10-29T15:07:31.505Z,1012.62
2022-10-29T15:08:31.850Z,1012.59
2022-10-29T15:09:32.196Z,1012.65
2022-10-29T15:10:32.553Z,1012.59
2022-10-29T15:11:32.843Z,1012.70
2022-10-29T15:12:33.183Z,1012.66
2022-10-29T15:13:33.558Z,1012.68
2022-10-29T15:14:33.863Z,1012.61
2022-10-29T15:15:34.205Z,1012.63
2022-10-29T15:16:38.206Z,1012.57
2022-10-29T15:17:35.817Z,1012.56
2022-10-29T15:18:35.037Z,1012.54
2022-10-29T15:19:35.384Z,1012.56
2022-10-29T15:20:35.736Z,1012.60
2022-10-29T15:21:36.038Z,1012.63
2022-10-29T15:22:36.374Z,1012.60
2022-10-29T15:23:36.738Z,1012.60
2022-10-29T15:24:37.039Z,1012.58
2022-10-29T15:25:37.385Z,1012.59
2022-10-29T15:26:37.626Z,1012.61
2022-10-29T15:27:37.953Z,1012.64
2022-10-29T15:28:38.150Z,1012.64
2022-10-29T15:29:42.866Z,1012.59
2022-10-29T15:30:38.786Z,1012.64
2022-10-29T15:31:39.128Z,1012.60
2022-10-29T15:32:39.458Z,1012.63
2022-10-29T15:33:39.797Z,1012.59
2022-10-29T15:34:40.170Z,1012.67
2022-10-29T15:35:40.489Z,1012.65
2022-10-29T15:36:40.768Z,1012.68
2022-10-29T15:37:41.100Z,1012.67
2022-10-29T15:38:41.448Z,1012.66
2022-10-29T15:39:41.672Z,1012.70
2022-10-29T15:40:42.054Z,1012.77
2022-10-29T15:41:42.331Z,1012.76
2022-10-29T15:42:42.671Z,1012.76
2022-10-29T15:43:43.007Z,1012.75
2022-10-29T15:44:43.340Z,1012.70
2022-10-29T15:45:43.708Z,1012.66
2022-10-29T15:46:44.021Z,1012.72
2022-10-29T15:47:44.349Z,1012.66
2022-10-29T15:48:44.691Z,1012.67
2022-10-29T15:49:45.018Z,1012.66
2022-10-29T15:50:45.376Z,1012.64
2022-10-29T15:51:45.681Z,1012.60
2022-10-29T15:52:45.887Z,1012.60
2022-10-29T15:53:46.235Z,1012.63
2022-10-29T15:54:46.453Z,1012.58
2022-10-29T15:55:46.812Z,1012.55
2022-10-29T15:56:46.892Z,1012.52
2022-10-29T15:57:47.224Z,1012.57
2022-10-29T15:58:47.574Z,1012.53
2022-10-29T15:59:47.793Z,1012.54
2022-10-29T16:00:48.168Z,1012.59
2022-10-29T16:01:48.478Z,1012.57
2022-10-29T16:02:48.680Z,1012.57
2022-10-29T16:03:49.037Z,1012.60
2022-10-29T16:04:49.376Z,1012.54
2022-10-29T16:05:49.748Z,1012.56
2022-10-29T16:06:50.052Z,1012.56
2022-10-29T16:07:50.330Z,1012.60
2022-10-29T16:08:50.661Z,1012.55
2022-10-29T16:09:50.998Z,1012.53
2022-10-29T16:10:51.342Z,1012.51
2022-10-29T16:11:51.620Z,1012.56
2022-10-29T16:12:51.864Z,1012.54
2022-10-29T16:13:54.594Z,1012.50
2022-10-29T16:14:52.541Z,1012.49
2022-10-29T16:15:52.782Z,1012.50
2022-10-29T16:16:53.120Z,1012.48
2022-10-29T16:17:53.721Z,1012.47
2022-10-29T16:18:53.702Z,1012.47
2022-10-29T16:19:54.048Z,1012.45
2022-10-29T16:20:54.280Z,1012.41
2022-10-29T16:21:59.717Z,1012.46
2022-10-29T16:22:55.945Z,1012.43
2022-10-29T16:23:55.187Z,1012.40
2022-10-29T16:24:55.448Z,1012.41
2022-10-29T16:25:55.718Z,1012.42
2022-10-29T16:26:55.957Z,1012.42
2022-10-29T16:27:56.604Z,1012.42
2022-10-29T16:28:56.493Z,1012.38
2022-10-29T16:29:56.838Z,1012.36
2022-10-29T16:30:57.135Z,1012.37
2022-10-29T16:31:57.367Z,1012.39
2022-10-29T16:32:57.896Z,1012.36
2022-10-29T16:33:57.915Z,1012.36
2022-10-29T16:34:58.219Z,1012.40
2022-10-29T16:35:58.555Z,1012.40
2022-10-29T16:36:58.852Z,1012.41
2022-10-29T16:37:59.085Z,1012.44
2022-10-29T16:38:59.321Z,1012.41
2022-10-29T16:39:59.549Z,1012.39
2022-10-29T16:40:59.808Z,1012.36
2022-10-29T16:42:00.131Z,1012.42
2022-10-29T16:43:00.783Z,1012.33
2022-10-29T16:44:00.621Z,1012.32
2022-10-29T16:45:00.849Z,1012.32
2022-10-29T16:46:04.356Z,1012.34
2022-10-29T16:47:01.326Z,1012.30
2022-10-29T16:48:01.975Z,1012.32
2022-10-29T16:49:01.911Z,1012.29
2022-10-29T16:50:02.289Z,1012.34
2022-10-29T16:51:02.587Z,1012.30
2022-10-29T16:52:02.909Z,1012.29
2022-10-29T16:53:03.272Z,1012.28
2022-10-29T16:54:03.558Z,1012.26
2022-10-29T16:55:03.903Z,1012.24
2022-10-29T16:56:04.231Z,1012.26
2022-10-29T16:57:04.577Z,1012.22
2022-10-29T16:58:04.923Z,1012.23
2022-10-29T16:59:05.216Z,1012.19
2022-10-29T17:00:05.562Z,1012.12
2022-10-29T17:01:06.070Z,1012.24
2022-10-29T17:02:06.187Z,1012.18
2022-10-29T17:03:10.047Z,1012.17
2022-10-29T17:04:06.850Z,1012.21
2022-10-29T17:05:07.135Z,1012.26
2022-10-29T17:06:07.448Z,1012.26
2022-10-29T17:07:07.777Z,1012.18
2022-10-29T17:08:08.012Z,1012.21
2022-10-29T17:09:08.356Z,1012.26
2022-10-29T17:10:08.697Z,1012.25
2022-10-29T17:11:09.009Z,1012.28
2022-10-29T17:12:09.333Z,1012.26
2022-10-29T17:13:09.693Z,1012.27
2022-10-29T17:14:09.985Z,1012.28
2022-10-29T17:15:10.314Z,1012.24
2022-10-29T17:16:10.631Z,1012.23
2022-10-29T17:17:10.964Z,1012.22
2022-10-29T17:18:11.300Z,1012.19
2022-10-29T17:19:11.595Z,1012.21
2022-10-29T17:20:11.944Z,1012.20
2022-10-29T17:21:12.252Z,1012.22
2022-10-29T17:22:12.586Z,1012.24
2022-10-29T17:23:12.968Z,1012.20
2022-10-29T17:24:13.251Z,1012.18
2022-10-29T17:25:13.587Z,1012.21
2022-10-29T17:26:13.905Z,1012.22
2022-10-29T17:27:14.236Z,1012.20
2022-10-29T17:28:14.596Z,1012.19
2022-10-29T17:29:14.882Z,1012.24
2022-10-29T17:30:15.201Z,1012.20
2022-10-29T17:31:15.531Z,1012.20
2022-10-29T17:32:15.867Z,1012.20
2022-10-29T17:33:16.206Z,1012.14
2022-10-29T17:34:16.509Z,1012.17
2022-10-29T17:35:16.832Z,1012.16
2022-10-29T17:36:17.154Z,1012.24
2022-10-29T17:37:17.498Z,1012.21
2022-10-29T17:38:17.806Z,1012.20
2022-10-29T17:39:18.083Z,1012.24
2022-10-29T17:40:18.416Z,1012.23
2022-10-29T17:41:18.735Z,1012.23
2022-10-29T17:42:19.055Z,1012.24
2022-10-29T17:43:19.399Z,1012.24
2022-10-29T17:44:19.676Z,1012.27
2022-10-29T17:45:20.023Z,1012.24
2022-10-29T17:46:20.246Z,1012.23
2022-10-29T17:47:20.592Z,1012.24
2022-10-29T17:48:24.030Z,1012.22
2022-10-29T17:49:21.163Z,1012.20
2022-10-29T17:50:21.498Z,1012.21
2022-10-29T17:51:21.825Z,1012.25
2022-10-29T17:52:22.144Z,1012.26
2022-10-29T17:53:22.485Z,1012.26
2022-10-29T17:54:22.783Z,1012.28
2022-10-29T17:55:23.100Z,1012.29
2022-10-29T17:56:23.422Z,1012.32
2022-10-29T17:57:23.753Z,1012.30
2022-10-29T17:58:24.080Z,1012.33
2022-10-29T17:59:24.373Z,1012.29
2022-10-29T18:00:24.709Z,1012.31
2022-10-29T18:01:25.168Z,1012.31
2022-10-29T18:02:25.554Z,1012.34
2022-10-29T18:03:25.663Z,1012.36
2022-10-29T18:04:25.946Z,1012.33
2022-10-29T18:05:26.180Z,1012.31
2022-10-29T18:06:26.506Z,1012.37
2022-10-29T18:07:26.819Z,1012.35
2022-10-29T18:08:27.169Z,1012.35
2022-10-29T18:09:36.148Z,1012.40
2022-10-29T18:10:27.752Z,1012.37
2022-10-29T18:11:28.068Z,1012.38
2022-10-29T18:12:28.418Z,1012.37
2022-10-29T18:13:28.662Z,1012.33
2022-10-29T18:14:28.957Z,1012.35
2022-10-29T18:15:29.282Z,1012.36
2022-10-29T18:16:29.625Z,1012.42
2022-10-29T18:17:29.952Z,1012.35
2022-10-29T18:18:34.787Z,1012.37
2022-10-29T18:19:31.541Z,1012.36
2022-10-29T18:20:30.895Z,1012.36
2022-10-29T18:21:31.233Z,1012.36
2022-10-29T18:22:31.565Z,1012.33
2022-10-29T18:23:31.910Z,1012.32
2022-10-29T18:25:59.723Z,1012.34
2022-10-29T18:27:00.057Z,1012.34
2022-10-29T18:28:00.386Z,1012.30
2022-10-29T18:29:00.744Z,1012.29
2022-10-29T18:30:01.014Z,1012.30
2022-10-29T18:31:01.347Z,1012.33
2022-10-29T18:32:01.681Z,1012.29
2022-10-29T18:33:02.264Z,1012.29
2022-10-29T18:34:02.262Z,1012.30
2022-10-29T18:35:02.575Z,1012.24
2022-10-29T18:36:02.913Z,1012.25
2022-10-29T18:37:03.236Z,1012.27
2022-10-29T18:38:03.553Z,1012.23
2022-10-29T18:39:03.954Z,1012.27
2022-10-29T18:40:11.131Z,1012.23
2022-10-29T18:41:04.383Z,1012.30
2022-10-29T18:42:04.708Z,1012.28
2022-10-29T18:43:05.018Z,1012.27
2022-10-29T18:44:05.354Z,1012.28
2022-10-29T18:45:05.670Z,1012.26
2022-10-29T18:46:05.991Z,1012.27
2022-10-29T18:47:06.310Z,1012.27
2022-10-29T18:48:06.755Z,1012.30
2022-10-29T18:49:06.961Z,1012.27
2022-10-29T18:50:07.255Z,1012.33
2022-10-29T18:51:07.561Z,1012.35
2022-10-29T18:52:07.895Z,1012.33
2022-10-29T18:53:08.210Z,1012.32
2022-10-29T18:54:08.627Z,1012.39
2022-10-29T18:55:08.899Z,1012.40
2022-10-29T18:56:09.189Z,1012.40
2022-10-29T18:57:09.527Z,1012.42
2022-10-29T18:58:09.837Z,1012.42
2022-10-29T18:59:10.186Z,1012.43
2022-10-29T19:00:10.475Z,1012.44
2022-10-29T19:01:10.879Z,1012.44
2022-10-29T19:02:11.101Z,1012.41
2022-10-29T19:03:11.284Z,1012.43
2022-10-29T19:04:11.620Z,1012.47
2022-10-29T19:05:11.933Z,1012.44
2022-10-29T19:06:12.267Z,1012.44
2022-10-29T19:07:12.575Z,1012.42
2022-10-29T19:08:12.893Z,1012.44
2022-10-29T19:09:13.236Z,1012.46
2022-10-29T19:10:13.523Z,1012.45
2022-10-29T19:11:13.864Z,1012.48
2022-10-29T19:12:14.182Z,1012.46
2022-10-29T19:13:14.515Z,1012.50
2022-10-29T19:14:14.859Z,1012.52
2022-10-29T19:15:15.149Z,1012.51
2022-10-29T19:16:15.487Z,1012.51
2022-10-29T19:17:15.816Z,1012.52
2022-10-29T19:18:16.144Z,1012.53
2022-10-29T19:19:18.511Z,1012.52
2022-10-29T19:20:16.706Z,1012.48
2022-10-29T19:21:17.024Z,1012.45
2022-10-29T19:22:17.344Z,1012.44
2022-10-29T19:23:17.678Z,1012.43
2022-10-29T19:24:18.015Z,1012.44
2022-10-29T19:25:18.345Z,1012.41
2022-10-29T19:26:18.677Z,1012.49
2022-10-29T19:27:18.995Z,1012.42
2022-10-29T19:28:19.315Z,1012.46
2022-10-29T19:29:19.670Z,1012.46
2022-10-29T19:30:19.961Z,1012.48
2022-10-29T19:31:20.284Z,1012.53
2022-10-29T19:32:20.611Z,1012.50
2022-10-29T19:33:20.947Z,1012.50
2022-10-29T19:34:21.289Z,1012.52
2022-10-29T19:35:21.565Z,1012.51
2022-10-29T19:36:21.886Z,1012.47
2022-10-29T19:37:22.205Z,1012.44
2022-10-29T19:38:22.539Z,1012.42
2022-10-29T19:39:22.888Z,1012.41
2022-10-29T19:40:23.156Z,1012.40
2022-10-29T19:41:23.494Z,1012.38
2022-10-29T19:42:23.798Z,1012.42
2022-10-29T19:43:24.147Z,1012.36
2022-10-29T19:44:24.857Z,1012.44
2022-10-29T19:45:24.672Z,1012.44
2022-10-29T19:46:25.059Z,1012.44
2022-10-29T19:47:25.321Z,1012.44
2022-10-29T19:48:25.601Z,1012.43
2022-10-29T19:49:25.935Z,1012.42
2022-10-29T19:50:26.231Z,1012.42
2022-10-29T19:51:26.488Z,1012.39
2022-10-29T19:52:26.800Z,1012.37
2022-10-29T19:53:27.130Z,1012.38
2022-10-29T19:54:27.472Z,1012.33
2022-10-29T19:55:27.751Z,1012.35
2022-10-29T19:56:28.061Z,1012.30
2022-10-29T19:57:28.379Z,1012.30
2022-10-29T19:58:28.677Z,1012.27
2022-10-29T19:59:32.332Z,1012.28
2022-10-29T20:00:29.333Z,1012.29
2022-10-29T20:01:29.733Z,1012.26
2022-10-29T20:02:29.922Z,1012.31
2022-10-29T20:03:30.211Z,1012.31
2022-10-29T20:04:30.556Z,1012.29
2022-10-29T20:05:30.890Z,1012.33
2022-10-29T20:06:31.059Z,1012.36
2022-10-29T20:07:31.359Z,1012.34
2022-10-29T20:08:31.669Z,1012.33
2022-10-29T20:09:32.022Z,1012.37
2022-10-29T20:10:32.307Z,1012.35
2022-10-29T20:11:32.624Z,1012.36
2022-10-29T20:12:32.945Z,1012.30
2022-10-29T20:13:33.273Z,1012.32
2022-10-29T20:14:33.592Z,1012.34
2022-10-29T20:15:33.873Z,1012.31
2022-10-29T20:16:34.189Z,1012.33
2022-10-29T20:17:34.494Z,1012.36
2022-10-29T20:18:34.810Z,1012.34
2022-10-29T20:19:35.162Z,1012.37
2022-10-29T20:20:35.444Z,1012.36
2022-10-29T20:21:36.000Z,1012.38
2022-10-29T20:22:35.994Z,1012.33
2022-10-29T20:23:36.301Z,1012.31
2022-10-29T20:24:36.724Z,1012.34
2022-10-29T20:25:36.890Z,1012.32
2022-10-29T20:26:37.188Z,1012.29
2022-10-29T20:27:37.505Z,1012.31
2022-10-29T20:28:37.816Z,1012.29
2022-10-29T20:29:38.129Z,1012.38
2022-10-29T20:30:38.445Z,1012.35
2022-10-29T20:31:41.475Z,1012.36
2022-10-29T20:32:39.061Z,1012.38
2022-10-29T20:33:39.362Z,1012.34
2022-10-29T20:34:39.704Z,1012.38
2022-10-29T20:35:39.976Z,1012.37
2022-10-29T20:36:40.503Z,1012.36
2022-10-29T20:37:40.585Z,1012.36
2022-10-29T20:38:40.896Z,1012.34
2022-10-29T20:39:41.244Z,1012.38
2022-10-29T20:40:41.513Z,1012.40
2022-10-29T20:41:41.854Z,1012.39
2022-10-29T20:42:42.153Z,1012.40
2022-10-29T20:43:42.380Z,1012.39
2022-10-29T20:44:42.704Z,1012.39
2022-10-29T20:45:42.971Z,1012.39
2022-10-29T20:46:43.884Z,1012.41
2022-10-29T20:47:43.543Z,1012.42
2022-10-29T20:48:43.858Z,1012.42
2022-10-29T20:49:44.193Z,1012.42
2022-10-29T20:50:44.474Z,1012.45
2022-10-29T20:51:44.773Z,1012.46
2022-10-29T20:52:48.567Z,1012.45
2022-10-29T20:53:45.406Z,1012.49
2022-10-29T20:54:45.737Z,1012.50
2022-10-29T20:55:46.003Z,1012.53
2022-10-29T20:56:46.316Z,1012.49
2022-10-29T20:57:46.624Z,1012.53
2022-10-29T20:58:46.936Z,1012.50
2022-10-29T20:59:47.290Z,1012.56
2022-10-29T21:00:47.593Z,1012.49
2022-10-29T21:01:48.021Z,1012.44
2022-10-29T21:02:48.185Z,1012.42
2022-10-29T21:03:48.430Z,1012.51
2022-10-29T21:04:48.746Z,1012.45
2022-10-29T21:05:49.073Z,1012.46
2022-10-29T21:06:49.391Z,1012.53
2022-10-29T21:07:49.708Z,1012.55
2022-10-29T21:08:50.036Z,1012.55
2022-10-29T21:09:50.358Z,1012.58
2022-10-29T21:10:50.669Z,1012.55
2022-10-29T21:11:50.989Z,1012.58
2022-10-29T21:12:51.294Z,1012.60
2022-10-29T21:13:51.608Z,1012.62
2022-10-29T21:14:51.924Z,1012.60
2022-10-29T21:15:52.250Z,1012.63
2022-10-29T21:16:52.556Z,1012.62
2022-10-29T21:17:52.889Z,1012.61
2022-10-29T21:18:53.210Z,1012.62
2022-10-29T21:19:53.535Z,1012.68
2022-10-29T21:20:53.820Z,1012.65
2022-10-29T21:21:54.137Z,1012.69
2022-10-29T21:22:54.834Z,1012.59
2022-10-29T21:23:54.706Z,1012.65
2022-10-29T21:24:55.027Z,1012.55
2022-10-29T21:25:55.297Z,1012.59
2022-10-29T21:26:55.639Z,1012.57
2022-10-29T21:27:56.331Z,1012.55
2022-10-29T21:28:56.233Z,1012.58
2022-10-29T21:29:56.579Z,1012.58
2022-10-29T21:30:56.837Z,1012.55
2022-10-29T21:31:57.160Z,1012.60
2022-10-29T21:32:57.466Z,1012.58
2022-10-29T21:33:57.769Z,1012.59
2022-10-29T21:34:58.122Z,1012.62
2022-10-29T21:35:58.412Z,1012.62
2022-10-29T21:36:58.731Z,1012.63
2022-10-29T21:37:59.502Z,1012.61
2022-10-29T21:38:59.289Z,1012.65
2022-10-29T21:40:03.215Z,1012.65
2022-10-29T21:41:00.882Z,1012.67
2022-10-29T21:42:00.208Z,1012.68
2022-10-29T21:43:00.750Z,1012.65
2022-10-29T21:44:00.798Z,1012.65
2022-10-29T21:45:01.133Z,1012.59
2022-10-29T21:46:01.399Z,1012.60
2022-10-29T21:47:01.722Z,1012.57
2022-10-29T21:48:02.030Z,1012.50
2022-10-29T21:49:02.365Z,1012.43
2022-10-29T21:50:02.648Z,1012.49
2022-10-29T21:51:02.923Z,1012.43
2022-10-29T21:52:03.243Z,1012.45
2022-10-29T21:53:03.603Z,1012.50
2022-10-29T21:54:03.897Z,1012.49
2022-10-29T21:55:04.236Z,1012.55
2022-10-29T21:56:04.491Z,1012.59
2022-10-29T21:57:04.807Z,1012.55
2022-10-29T21:58:05.123Z,1012.59
2022-10-29T21:59:05.429Z,1012.55
2022-10-29T22:00:05.770Z,1012.60
2022-10-29T22:01:06.152Z,1012.58
2022-10-29T22:02:06.447Z,1012.62
2022-10-29T22:03:06.590Z,1012.61
2022-10-29T22:04:06.911Z,1012.61
2022-10-29T22:05:07.243Z,1012.66
2022-10-29T22:06:07.514Z,1012.68
2022-10-29T22:07:07.828Z,1012.69
2022-10-29T22:08:08.131Z,1012.72
2022-10-29T22:09:08.431Z,1012.76
2022-10-29T22:10:08.795Z,1012.73
2022-10-29T22:11:09.064Z,1012.68
2022-10-29T22:12:09.363Z,1012.65
2022-10-29T22:13:13.469Z,1012.63
2022-10-29T22:14:10.017Z,1012.59
2022-10-29T22:15:10.333Z,1012.65
2022-10-29T22:16:10.647Z,1012.60
2022-10-29T22:17:10.965Z,1012.66
2022-10-29T22:18:11.270Z,1012.62
2022-10-29T22:19:11.585Z,1012.64
2022-10-29T22:20:11.920Z,1012.62
2022-10-29T22:21:12.203Z,1012.65
2022-10-29T22:22:12.503Z,1012.67
2022-10-29T22:23:12.915Z,1012.69
2022-10-29T22:24:13.056Z,1012.72
2022-10-29T22:25:13.396Z,1012.81
2022-10-29T22:26:13.652Z,1012.82
2022-10-29T22:27:13.964Z,1012.82
2022-10-29T22:28:14.277Z,1012.85
2022-10-29T22:29:14.574Z,1012.87
2022-10-29T22:30:14.902Z,1012.85
2022-10-29T22:31:15.218Z,1012.83
2022-10-29T22:32:15.512Z,1012.81
2022-10-29T22:33:15.838Z,1012.80
2022-10-29T22:34:16.148Z,1012.88
2022-10-29T22:35:16.465Z,1012.86
2022-10-29T22:36:16.787Z,1012.89
2022-10-29T22:37:17.085Z,1012.91
2022-10-29T22:38:17.407Z,1012.92
2022-10-29T22:39:17.717Z,1012.84
2022-10-29T22:40:18.050Z,1012.80
2022-10-29T22:41:18.340Z,1012.74
2022-10-29T22:42:18.635Z,1012.76
2022-10-29T22:43:18.944Z,1012.73
2022-10-29T22:44:19.246Z,1012.75
2022-10-29T22:45:19.588Z,1012.76
2022-10-29T22:46:19.845Z,1012.74
2022-10-29T22:47:20.155Z,1012.78
2022-10-29T22:48:20.478Z,1012.70
2022-10-29T22:49:20.789Z,1012.75
2022-10-29T22:50:21.129Z,1012.74
2022-10-29T22:51:21.385Z,1012.72
2022-10-29T22:52:21.709Z,1012.71
2022-10-29T22:53:22.017Z,1012.71
2022-10-29T22:54:22.327Z,1012.67
2022-10-29T22:55:22.670Z,1012.63
2022-10-29T22:56:22.936Z,1012.62
2022-10-29T22:57:23.251Z,1012.54
2022-10-29T22:58:23.561Z,1012.52
2022-10-29T22:59:23.875Z,1012.48
2022-10-29T23:00:24.225Z,1012.48
2022-10-29T23:01:24.607Z,1012.47
2022-10-29T23:02:24.910Z,1012.47
2022-10-29T23:03:25.052Z,1012.50
2022-10-29T23:04:25.366Z,1012.53
2022-10-29T23:05:25.713Z,1012.57
2022-10-29T23:06:25.968Z,1012.56
2022-10-29T23:07:26.335Z,1012.52
2022-10-29T23:08:26.577Z,1012.59
2022-10-29T23:09:26.901Z,1012.56
2022-10-29T23:10:27.230Z,1012.58
2022-10-29T23:11:27.522Z,1012.57
2022-10-29T23:12:27.799Z,1012.57
2022-10-29T23:13:28.109Z,1012.61
2022-10-29T23:14:28.428Z,1012.60
2022-10-29T23:15:28.778Z,1012.62
2022-10-29T23:16:29.051Z,1012.63
2022-10-29T23:17:29.372Z,1012.63
2022-10-29T23:18:29.683Z,1012.60
2022-10-29T23:19:29.979Z,1012.61
2022-10-29T23:20:30.320Z,1012.58
2022-10-29T23:21:30.601Z,1012.57
2022-10-29T23:22:30.923Z,1012.63
2022-10-29T23:23:31.224Z,1012.62
2022-10-29T23:24:31.558Z,1012.63
2022-10-29T23:25:31.880Z,1012.63
2022-10-29T23:26:32.154Z,1012.61
2022-10-29T23:27:32.616Z,1012.66
2022-10-29T23:28:32.798Z,1012.67
2022-10-29T23:29:33.087Z,1012.71
2022-10-29T23:30:33.410Z,1012.71
2022-10-29T23:31:33.684Z,1012.75
2022-10-29T23:32:33.989Z,1012.71
2022-10-29T23:33:34.316Z,1012.73
2022-10-29T23:34:34.634Z,1012.69
2022-10-29T23:35:34.960Z,1012.63
2022-10-29T23:36:35.253Z,1012.63
2022-10-29T23:37:35.539Z,1012.61
2022-10-29T23:38:35.865Z,1012.65
2022-10-29T23:39:36.172Z,1012.64
2022-10-29T23:40:36.518Z,1012.65
2022-10-29T23:41:36.792Z,1012.67
2022-10-29T23:42:37.090Z,1012.66
2022-10-29T23:43:37.399Z,1012.72
2022-10-29T23:44:37.710Z,1012.69
2022-10-29T23:45:38.040Z,1012.70
2022-10-29T23:46:38.359Z,1012.73
2022-10-29T23:47:38.652Z,1012.69
2022-10-29T23:48:38.974Z,1012.68
2022-10-29T23:49:39.242Z,1012.66
2022-10-29T23:50:39.559Z,1012.62
2022-10-29T23:51:39.863Z,1012.60
2022-10-29T23:52:40.175Z,1012.66
2022-10-29T23:53:40.491Z,1012.69
2022-10-29T23:54:40.792Z,1012.67
2022-10-29T23:55:41.146Z,1012.71
2022-10-29T23:56:41.423Z,1012.73
2022-10-29T23:57:41.726Z,1012.67
2022-10-29T23:58:42.033Z,1012.71
2022-10-29T23:59:42.366Z,1012.67
